createdAt,value
2022-10-05T00:00:59.684Z,97840.75
2022-10-05T00:03:36.944Z,97841.59
2022-10-05T00:06:04.101Z,97852.63
2022-10-05T00:08:34.104Z,97844.38
2022-10-05T00:11:01.642Z,97850.63
2022-10-05T00:13:30.963Z,97841.88
2022-10-05T00:16:19.319Z,97845.63
2022-10-05T00:18:51.611Z,97853.19
2022-10-05T00:21:20.388Z,97862.19
2022-10-05T00:23:47.315Z,97847.34
2022-10-05T00:26:21.848Z,97868.13
2022-10-05T00:28:49.613Z,97867.34
2022-10-05T00:31:19.654Z,97882.81
2022-10-05T00:33:48.031Z,97873.47
2022-10-05T00:36:15.601Z,97868.25
2022-10-05T00:38:43.282Z,97882.31
2022-10-05T00:41:22.942Z,97871.00
2022-10-05T00:44:15.417Z,97871.81
2022-10-05T00:47:07.351Z,97878.78
2022-10-05T00:49:56.689Z,97881.56
2022-10-05T00:52:38.612Z,97867.97
2022-10-05T00:55:05.412Z,97871.34
2022-10-05T00:58:04.516Z,97873.25
2022-10-05T01:00:39.814Z,97872.44
2022-10-05T01:03:37.019Z,97880.63
2022-10-05T01:06:27.320Z,97886.09
2022-10-05T01:09:02.735Z,97879.59
2022-10-05T01:11:48.117Z,97884.97
2022-10-05T01:14:40.672Z,97884.56
2022-10-05T01:17:20.433Z,97890.03
2022-10-05T01:19:56.546Z,97879.19
2022-10-05T01:22:45.219Z,97880.28
2022-10-05T01:25:21.419Z,97882.88
2022-10-05T01:27:48.296Z,97889.66
2022-10-05T01:30:18.708Z,97894.84
2022-10-05T01:33:28.123Z,97876.56
2022-10-05T01:35:57.724Z,97879.38
2022-10-05T01:38:30.148Z,97890.41
2022-10-05T01:41:25.304Z,97895.81
2022-10-05T01:43:56.556Z,97898.69
2022-10-05T01:46:35.989Z,97904.19
2022-10-05T01:49:20.977Z,97904.44
2022-10-05T01:51:50.836Z,97913.56
2022-10-05T01:54:40.026Z,97908.63
2022-10-05T01:57:19.364Z,97913.34
2022-10-05T02:00:09.261Z,97914.53
2022-10-05T02:03:01.417Z,97912.72
2022-10-05T02:05:50.601Z,97916.38
2022-10-05T02:08:23.494Z,97909.88
2022-10-05T02:11:07.633Z,97921.84
2022-10-05T02:14:00.125Z,97915.97
2022-10-05T02:16:45.657Z,97922.59
2022-10-05T02:19:27.599Z,97929.81
2022-10-05T02:22:08.545Z,97929.03
2022-10-05T02:24:44.517Z,97926.81
2022-10-05T02:27:18.274Z,97932.69
2022-10-05T02:29:48.874Z,97933.00
2022-10-05T02:32:22.832Z,97934.19
2022-10-05T02:34:50.279Z,97932.91
2022-10-05T02:37:42.949Z,97934.69
2022-10-05T02:40:34.717Z,97933.34
2022-10-05T02:43:13.780Z,97940.00
2022-10-05T02:46:03.958Z,97948.56
2022-10-05T02:48:57.319Z,97954.38
2022-10-05T02:51:33.247Z,97947.50
2022-10-05T02:54:33.115Z,97956.31
2022-10-05T02:57:16.381Z,97952.16
2022-10-05T03:00:14.993Z,97948.88
2022-10-05T03:02:51.269Z,97953.94
2022-10-05T03:05:33.955Z,97949.84
2022-10-05T03:08:04.064Z,97959.13
2022-10-05T03:10:47.876Z,97963.38
2022-10-05T03:13:30.397Z,97970.28
2022-10-05T03:16:09.852Z,97961.44
2022-10-05T03:18:44.839Z,97968.81
2022-10-05T03:21:12.160Z,97973.06
2022-10-05T03:24:06.464Z,97977.31
2022-10-05T03:26:47.882Z,97966.03
2022-10-05T03:29:33.263Z,97969.31
2022-10-05T03:32:34.634Z,97965.66
2022-10-05T03:35:28.875Z,97974.25
2022-10-05T03:38:02.156Z,97969.34
2022-10-05T03:40:38.717Z,97979.31
2022-10-05T03:43:38.623Z,97981.53
2022-10-05T03:46:32.028Z,97981.38
2022-10-05T03:49:05.331Z,97989.66
2022-10-05T03:51:37.485Z,97995.69
2022-10-05T03:54:15.978Z,98000.88
2022-10-05T03:56:51.737Z,97988.81
2022-10-05T03:59:30.142Z,97995.16
2022-10-05T04:02:15.705Z,97999.63
2022-10-05T04:04:48.918Z,98007.69
2022-10-05T04:07:33.443Z,97999.50
2022-10-05T04:10:03.342Z,98005.38
2022-10-05T04:12:43.785Z,98013.69
2022-10-05T04:15:45.356Z,98017.44
2022-10-05T04:18:27.112Z,98014.28
2022-10-05T04:21:23.955Z,98020.13
2022-10-05T04:24:13.389Z,98020.97
2022-10-05T04:26:55.830Z,98025.91
2022-10-05T04:29:38.171Z,98019.44
2022-10-05T04:32:50.160Z,98029.03
2022-10-05T04:35:31.495Z,98030.78
2022-10-05T04:38:15.972Z,98033.50
2022-10-05T04:41:13.337Z,98021.06
2022-10-05T04:43:46.696Z,98036.34
2022-10-05T04:46:53.435Z,98037.81
2022-10-05T04:49:44.953Z,98030.41
2022-10-05T04:52:31.470Z,98037.69
2022-10-05T04:55:36.025Z,98041.63
2022-10-05T04:58:42.086Z,98032.19
2022-10-05T05:01:45.686Z,98034.38
2022-10-05T05:04:43.160Z,98042.47
2022-10-05T05:07:19.926Z,98053.22
2022-10-05T05:10:24.592Z,98058.16
2022-10-05T05:13:22.601Z,98061.94
2022-10-05T05:16:04.709Z,98069.28
2022-10-05T05:19:04.647Z,98078.13
2022-10-05T05:22:20.906Z,98091.81
2022-10-05T05:25:21.078Z,98084.50
2022-10-05T05:27:57.065Z,98090.56
2022-10-05T05:30:43.350Z,98069.53
2022-10-05T05:33:17.510Z,98096.44
2022-10-05T05:35:55.843Z,98096.13
2022-10-05T05:38:41.483Z,98100.25
2022-10-05T05:41:09.338Z,98098.09
2022-10-05T05:43:51.379Z,98102.56
2022-10-05T05:47:04.786Z,98100.56
2022-10-05T05:49:49.757Z,98100.94
2022-10-05T05:52:24.368Z,98093.75
2022-10-05T05:55:20.956Z,98102.91
2022-10-05T05:58:15.490Z,98100.72
2022-10-05T06:00:53.853Z,98102.59
2022-10-05T06:03:51.812Z,98108.53
2022-10-05T06:06:25.865Z,98104.47
2022-10-05T06:08:57.129Z,98102.47
2022-10-05T06:11:53.601Z,98098.78
2022-10-05T06:14:42.570Z,98105.19
2022-10-05T06:17:26.942Z,98114.53
2022-10-05T06:20:02.503Z,98104.66
2022-10-05T06:22:44.238Z,98102.72
2022-10-05T06:25:15.094Z,98113.19
2022-10-05T06:27:56.989Z,98118.63
2022-10-05T06:30:26.385Z,98122.56
2022-10-05T06:33:15.524Z,98105.72
2022-10-05T06:36:07.643Z,98134.13
2022-10-05T06:38:47.042Z,98129.84
2022-10-05T06:41:48.052Z,98137.38
2022-10-05T06:44:33.558Z,98132.53
2022-10-05T06:47:47.515Z,98129.44
2022-10-05T06:50:56.977Z,98140.13
2022-10-05T06:54:04.216Z,98144.66
2022-10-05T06:57:03.029Z,98150.06
2022-10-05T07:00:01.969Z,98152.69
2022-10-05T07:02:40.931Z,98146.69
2022-10-05T07:05:29.673Z,98160.22
2022-10-05T07:07:58.532Z,98159.19
2022-10-05T07:10:57.318Z,98151.28
2022-10-05T07:13:43.828Z,98151.41
2022-10-05T07:16:36.618Z,98143.47
2022-10-05T07:19:20.174Z,98145.84
2022-10-05T07:22:37.351Z,98147.66
2022-10-05T07:25:20.469Z,98138.34
2022-10-05T07:27:55.801Z,98141.59
2022-10-05T07:30:23.609Z,98141.91
2022-10-05T07:33:09.965Z,98149.75
2022-10-05T07:36:19.332Z,98138.19
2022-10-05T07:38:59.380Z,98125.47
2022-10-05T07:41:46.106Z,98136.34
2022-10-05T07:44:17.058Z,98133.41
2022-10-05T07:46:58.044Z,98133.59
2022-10-05T07:49:47.758Z,98142.00
2022-10-05T07:52:26.585Z,98138.06
2022-10-05T07:55:20.771Z,98141.59
2022-10-05T07:58:24.131Z,98144.22
2022-10-05T08:01:13.724Z,98148.25
2022-10-05T08:03:58.590Z,98149.44
2022-10-05T08:06:57.337Z,98148.91
2022-10-05T08:09:46.448Z,98148.31
2022-10-05T08:12:24.171Z,98120.13
2022-10-05T08:15:10.055Z,98152.91
2022-10-05T08:17:53.217Z,98156.13
2022-10-05T08:20:23.020Z,98145.47
2022-10-05T08:22:58.633Z,98146.66
2022-10-05T08:25:33.949Z,98102.25
2022-10-05T08:28:13.052Z,98145.16
2022-10-05T08:31:31.979Z,98148.13
2022-10-05T08:34:21.131Z,98133.28
2022-10-05T08:37:00.265Z,98138.78
2022-10-05T08:39:34.324Z,98141.97
2022-10-05T08:42:58.267Z,98139.50
2022-10-05T08:45:53.281Z,98135.00
2022-10-05T08:48:50.241Z,98132.41
2022-10-05T08:51:49.593Z,98125.16
2022-10-05T08:54:27.278Z,98130.00
2022-10-05T08:57:15.824Z,98126.00
2022-10-05T09:00:04.393Z,98122.88
2022-10-05T09:02:35.101Z,98130.50
2022-10-05T09:05:33.521Z,98129.03
2022-10-05T09:08:13.025Z,98132.59
2022-10-05T09:11:02.581Z,98127.72
2022-10-05T09:13:39.507Z,98137.72
2022-10-05T09:16:15.275Z,98136.47
2022-10-05T09:19:23.701Z,98138.03
2022-10-05T09:21:56.741Z,98139.44
2022-10-05T09:25:03.530Z,98144.41
2022-10-05T09:27:37.612Z,98138.13
2022-10-05T09:30:19.089Z,98139.84
2022-10-05T09:33:34.767Z,98141.75
2022-10-05T09:36:30.549Z,98145.28
2022-10-05T09:39:13.860Z,98148.53
2022-10-05T09:41:43.399Z,98151.19
2022-10-05T09:44:31.711Z,98160.50
2022-10-05T09:47:30.301Z,98153.00
2022-10-05T09:50:28.095Z,98162.00
2022-10-05T09:53:09.917Z,98145.59
2022-10-05T09:56:19.688Z,98147.84
2022-10-05T09:59:08.684Z,98158.22
2022-10-05T10:01:40.585Z,98147.19
2022-10-05T10:04:48.591Z,98145.97
2022-10-05T10:07:52.018Z,98154.28
2022-10-05T10:10:54.302Z,98154.25
2022-10-05T10:13:58.178Z,98150.00
2022-10-05T10:16:53.712Z,98133.09
2022-10-05T10:19:47.561Z,98153.88
2022-10-05T10:22:33.004Z,98152.84
2022-10-05T10:25:35.338Z,98146.72
2022-10-05T10:28:41.138Z,98148.47
2022-10-05T10:31:26.140Z,98145.75
2022-10-05T10:34:08.154Z,98145.09
2022-10-05T10:36:54.115Z,98149.34
2022-10-05T10:39:58.408Z,98149.97
2022-10-05T10:42:30.904Z,98147.84
2022-10-05T10:45:28.748Z,98150.19
2022-10-05T10:48:18.611Z,98141.63
2022-10-05T10:51:29.816Z,98139.84
2022-10-05T10:54:21.020Z,98136.41
2022-10-05T10:56:55.061Z,98139.97
2022-10-05T10:59:59.215Z,98138.03
2022-10-05T11:02:46.825Z,98135.97
2022-10-05T11:05:23.250Z,98124.97
2022-10-05T11:08:02.119Z,98122.88
2022-10-05T11:10:46.784Z,98133.09
2022-10-05T11:13:37.328Z,98137.94
2022-10-05T11:16:28.762Z,98128.28
2022-10-05T11:18:58.699Z,98116.03
2022-10-05T11:21:44.275Z,98117.00
2022-10-05T11:24:25.932Z,98113.00
2022-10-05T11:26:55.538Z,98118.28
2022-10-05T11:30:02.077Z,98113.56
2022-10-05T11:32:56.242Z,98105.22
2022-10-05T11:35:38.304Z,98109.59
2022-10-05T11:38:17.026Z,98111.66
2022-10-05T11:41:23.164Z,98094.94
2022-10-05T11:44:07.955Z,98087.78
2022-10-05T11:47:25.678Z,98101.97
2022-10-05T11:50:06.634Z,98094.53
2022-10-05T11:52:52.268Z,98094.50
2022-10-05T11:55:33.852Z,98085.75
2022-10-05T11:58:23.637Z,98081.22
2022-10-05T12:01:04.244Z,98078.34
2022-10-05T12:03:59.395Z,98080.53
2022-10-05T12:06:43.786Z,98082.00
2022-10-05T12:09:14.488Z,98075.69
2022-10-05T12:12:06.289Z,98080.03
2022-10-05T12:14:42.307Z,98078.16
2022-10-05T12:17:24.387Z,98066.59
2022-10-05T12:19:57.986Z,98064.56
2022-10-05T12:22:34.815Z,98069.22
2022-10-05T12:25:28.735Z,98065.00
2022-10-05T12:28:04.857Z,98067.50
2022-10-05T12:31:06.319Z,98061.59
2022-10-05T12:33:45.522Z,98074.16
2022-10-05T12:36:17.844Z,98069.00
2022-10-05T12:39:05.037Z,98058.16
2022-10-05T12:41:57.868Z,98066.66
2022-10-05T12:44:46.302Z,98076.94
2022-10-05T12:47:23.821Z,98072.72
2022-10-05T12:50:16.957Z,98082.75
2022-10-05T12:52:53.010Z,98083.69
2022-10-05T12:55:42.533Z,98058.09
2022-10-05T12:58:31.283Z,98073.38
2022-10-05T13:01:24.716Z,98084.56
2022-10-05T13:04:01.693Z,98089.34
2022-10-05T13:06:48.492Z,98084.91
2022-10-05T13:09:34.003Z,98093.94
2022-10-05T13:12:18.005Z,98084.06
2022-10-05T13:14:47.854Z,98077.69
2022-10-05T13:17:29.793Z,98076.78
2022-10-05T13:20:03.778Z,98083.66
2022-10-05T13:22:34.871Z,98081.22
2022-10-05T13:25:25.877Z,98073.09
2022-10-05T13:27:55.562Z,98062.63
2022-10-05T13:30:22.755Z,98067.84
2022-10-05T13:33:08.159Z,98068.25
2022-10-05T13:36:00.921Z,98048.16
2022-10-05T13:38:51.065Z,98070.88
2022-10-05T13:41:36.660Z,98057.53
2022-10-05T13:44:18.288Z,98056.53
2022-10-05T13:47:06.702Z,98018.66
2022-10-05T13:49:51.654Z,98059.91
2022-10-05T13:52:37.740Z,98058.88
2022-10-05T13:55:38.452Z,98052.19
2022-10-05T14:01:24.366Z,98062.88
2022-10-05T14:04:20.607Z,98066.66
2022-10-05T14:06:49.452Z,98060.75
2022-10-05T14:09:25.398Z,98059.03
2022-10-05T14:12:01.996Z,98072.56
2022-10-05T14:14:31.912Z,98062.59
2022-10-05T14:17:05.809Z,98064.56
2022-10-05T14:19:42.131Z,98076.03
2022-10-05T14:22:23.659Z,98073.41
2022-10-05T14:25:02.917Z,98070.78
2022-10-05T14:27:51.807Z,98068.53
2022-10-05T14:30:25.717Z,98069.91
2022-10-05T14:33:04.485Z,98080.56
2022-10-05T14:35:49.050Z,98068.91
2022-10-05T14:38:18.169Z,98077.44
2022-10-05T14:40:45.134Z,98072.34
2022-10-05T14:43:16.749Z,98081.47
2022-10-05T14:45:58.782Z,98070.06
2022-10-05T14:48:28.208Z,98076.44
2022-10-05T14:51:00.462Z,98065.50
2022-10-05T14:53:40.939Z,98063.91
2022-10-05T14:56:26.664Z,98068.13
2022-10-05T14:59:23.255Z,98067.13
2022-10-05T15:02:01.066Z,98067.69
2022-10-05T15:04:29.437Z,98069.88
2022-10-05T15:07:32.158Z,98079.69
2022-10-05T15:10:19.117Z,98080.25
2022-10-05T15:12:48.478Z,98087.38
2022-10-05T15:15:32.841Z,98085.50
2022-10-05T15:18:05.794Z,98098.72
2022-10-05T15:20:53.655Z,98089.44
2022-10-05T15:23:25.708Z,98100.03
2022-10-05T15:26:46.659Z,98100.63
2022-10-05T15:29:26.161Z,98102.59
2022-10-05T15:31:55.766Z,98103.59
2022-10-05T15:34:36.236Z,98107.22
2022-10-05T15:37:19.812Z,98113.19
2022-10-05T15:39:46.650Z,98109.41
2022-10-05T15:42:29.529Z,98111.53
2022-10-05T15:45:14.140Z,98092.34
2022-10-05T15:47:53.185Z,98114.41
2022-10-05T15:50:26.641Z,98112.81
2022-10-05T15:53:06.614Z,98114.44
2022-10-05T15:55:51.263Z,98107.31
2022-10-05T15:58:45.568Z,98121.34
2022-10-05T16:01:21.274Z,98114.41
2022-10-05T16:03:52.258Z,98116.25
2022-10-05T16:07:03.770Z,98122.94
2022-10-05T16:15:35.684Z,98123.13
2022-10-05T16:18:36.020Z,98129.53
2022-10-05T16:21:15.204Z,98130.25
2022-10-05T16:24:06.420Z,98145.41
2022-10-05T16:26:56.942Z,98149.19
2022-10-05T16:29:33.022Z,98154.81
2022-10-05T16:32:17.192Z,98145.81
2022-10-05T16:35:10.837Z,98152.44
2022-10-05T16:38:06.708Z,98167.50
2022-10-05T16:40:59.638Z,98162.13
2022-10-05T16:43:44.955Z,98167.97
2022-10-05T16:46:28.056Z,98170.38
2022-10-05T16:49:09.471Z,98167.56
2022-10-05T16:51:44.629Z,98172.81
2022-10-05T16:54:18.281Z,98181.72
2022-10-05T16:56:52.147Z,98150.75
2022-10-05T16:59:34.077Z,98178.34
2022-10-05T17:02:33.722Z,98189.97
2022-10-05T17:05:25.765Z,98192.28
2022-10-05T17:07:55.351Z,98200.19
2022-10-05T17:10:37.254Z,98200.03
2022-10-05T17:13:29.627Z,98203.66
2022-10-05T17:16:22.064Z,98196.47
2022-10-05T17:19:19.942Z,98176.50
2022-10-05T17:22:06.071Z,98202.97
2022-10-05T17:24:54.316Z,98215.50
2022-10-05T17:27:50.938Z,98215.13
2022-10-05T17:30:21.017Z,98212.22
2022-10-05T17:33:14.271Z,98211.53
2022-10-05T17:35:51.798Z,98221.75
2022-10-05T17:38:49.022Z,98218.34
2022-10-05T17:41:19.614Z,98202.03
2022-10-05T17:44:17.675Z,98219.88
2022-10-05T17:46:50.172Z,98221.63
2022-10-05T17:49:46.829Z,98218.16
2022-10-05T17:52:44.407Z,98224.78
2022-10-05T17:55:28.146Z,98233.38
2022-10-05T17:57:58.747Z,98224.41
2022-10-05T18:00:32.883Z,98206.97
2022-10-05T18:03:00.250Z,98220.00
2022-10-05T18:05:29.318Z,98219.28
2022-10-05T18:08:11.516Z,98227.66
2022-10-05T18:10:59.428Z,98221.66
2022-10-05T18:13:47.908Z,98223.81
2022-10-05T18:16:53.177Z,98222.88
2022-10-05T18:19:22.349Z,98223.50
2022-10-05T18:22:15.054Z,98229.38
2022-10-05T18:25:07.270Z,98225.00
2022-10-05T18:27:50.946Z,98225.16
2022-10-05T18:30:26.928Z,98218.94
2022-10-05T18:33:03.525Z,98227.00
2022-10-05T18:36:07.737Z,98235.53
2022-10-05T18:38:44.576Z,98235.31
2022-10-05T18:41:23.374Z,98228.47
2022-10-05T18:44:06.154Z,98231.91
2022-10-05T18:46:50.548Z,98238.19
2022-10-05T18:49:48.657Z,98239.66
2022-10-05T18:52:40.198Z,98241.09
2022-10-05T18:55:23.628Z,98200.84
2022-10-05T18:58:03.375Z,98249.78
2022-10-05T19:01:12.594Z,98251.00
2022-10-05T19:03:52.371Z,98240.59
2022-10-05T19:06:32.910Z,98253.22
2022-10-05T19:09:51.029Z,98256.31
2022-10-05T19:12:29.495Z,98259.53
2022-10-05T19:15:18.322Z,98256.16
2022-10-05T19:18:07.944Z,98260.22
2022-10-05T19:20:41.609Z,98254.91
2022-10-05T19:23:39.140Z,98247.88
2022-10-05T19:26:37.852Z,98217.56
2022-10-05T19:29:33.494Z,98268.03
2022-10-05T19:32:28.843Z,98257.34
2022-10-05T19:35:17.811Z,98275.72
2022-10-05T19:38:15.842Z,98266.31
2022-10-05T19:41:07.387Z,98271.44
2022-10-05T19:43:55.451Z,98267.88
2022-10-05T19:47:00.273Z,98271.81
2022-10-05T19:49:43.169Z,98272.94
2022-10-05T19:52:21.287Z,98264.94
2022-10-05T19:55:01.571Z,98257.03
2022-10-05T19:57:28.813Z,98260.00
2022-10-05T19:59:58.328Z,98261.63
2022-10-05T20:02:27.117Z,98273.19
2022-10-05T20:05:07.093Z,98270.19
2022-10-05T20:07:35.113Z,98271.91
2022-10-05T20:10:30.645Z,98272.50
2022-10-05T20:13:00.549Z,98254.09
2022-10-05T20:15:48.506Z,98275.31
2022-10-05T20:19:01.965Z,98282.03
2022-10-05T20:21:44.124Z,98279.84
2022-10-05T20:24:23.676Z,98283.50
2022-10-05T20:27:06.279Z,98275.63
2022-10-05T20:29:43.532Z,98282.41
2022-10-05T20:32:19.378Z,98282.88
2022-10-05T20:34:48.475Z,98279.75
2022-10-05T20:37:17.724Z,98283.38
2022-10-05T20:39:44.725Z,98279.09
2022-10-05T20:42:11.847Z,98295.66
2022-10-05T20:44:39.665Z,98285.25
2022-10-05T20:47:09.759Z,98292.59
2022-10-05T20:49:39.129Z,98293.38
2022-10-05T20:52:13.254Z,98300.88
2022-10-05T20:54:40.237Z,98294.06
2022-10-05T20:57:09.220Z,98298.03
2022-10-05T20:59:36.394Z,98302.13
2022-10-05T21:02:06.273Z,98299.09
2022-10-05T21:04:41.978Z,98297.59
2022-10-05T21:07:09.527Z,98298.41
2022-10-05T21:09:38.674Z,98284.97
2022-10-05T21:12:08.234Z,98296.19
2022-10-05T21:14:36.537Z,98296.88
2022-10-05T21:17:05.011Z,98293.25
2022-10-05T21:19:38.186Z,98284.56
2022-10-05T21:22:11.387Z,98265.41
2022-10-05T21:24:41.226Z,98286.75
2022-10-05T21:27:09.860Z,98291.75
2022-10-05T21:29:37.188Z,98277.78
2022-10-05T21:32:08.570Z,98279.66
2022-10-05T21:34:35.792Z,98291.19
2022-10-05T21:37:04.398Z,98279.09
2022-10-05T21:39:31.453Z,98285.97
2022-10-05T21:41:58.322Z,98291.56
2022-10-05T21:44:25.179Z,98286.84
2022-10-05T21:46:56.172Z,98291.38
2022-10-05T21:49:25.751Z,98288.63
2022-10-05T21:51:52.817Z,98287.91
2022-10-05T21:54:22.467Z,98285.25
2022-10-05T21:56:55.777Z,98294.75
2022-10-05T21:59:27.782Z,98259.44
2022-10-05T22:01:54.901Z,98290.75
2022-10-05T22:04:22.629Z,98293.22
2022-10-05T22:06:49.518Z,98288.03
2022-10-05T22:09:16.403Z,98304.59
2022-10-05T22:11:47.209Z,98300.94
2022-10-05T22:14:17.263Z,98290.63
2022-10-05T22:16:44.813Z,98294.91
2022-10-05T22:19:16.642Z,98291.06
2022-10-05T22:21:43.581Z,98287.34
2022-10-05T22:24:11.682Z,98276.06
2022-10-05T22:26:41.753Z,98276.38
2022-10-05T22:29:09.670Z,98288.72
2022-10-05T22:31:37.135Z,98283.38
2022-10-05T22:34:04.091Z,98282.78
2022-10-05T22:36:31.413Z,98285.78
2022-10-05T22:38:58.461Z,98280.78
2022-10-05T22:41:25.417Z,98273.41
2022-10-05T22:43:52.772Z,98285.94
2022-10-05T22:46:20.306Z,98281.59
2022-10-05T22:48:48.066Z,98279.28
2022-10-05T22:51:14.923Z,98285.03
2022-10-05T22:53:41.855Z,98277.09
2022-10-05T22:56:11.562Z,98276.69
2022-10-05T22:58:38.623Z,98274.44
2022-10-05T23:01:08.586Z,98277.31
2022-10-05T23:03:35.655Z,98286.19
2022-10-05T23:06:11.712Z,98279.84
2022-10-05T23:08:39.852Z,98273.56
2022-10-05T23:11:12.220Z,98278.41
2022-10-05T23:13:39.475Z,98281.06
2022-10-05T23:16:17.832Z,98276.09
2022-10-05T23:18:47.527Z,98273.47
2022-10-05T23:21:14.633Z,98273.75
2022-10-05T23:23:47.440Z,98241.84
2022-10-05T23:26:16.107Z,98276.63
2022-10-05T23:28:46.660Z,98271.16
2022-10-05T23:31:16.197Z,98276.53
2022-10-05T23:33:43.883Z,98264.72
2022-10-05T23:36:20.338Z,98273.00
2022-10-05T23:38:47.581Z,98260.56
2022-10-05T23:41:16.056Z,98248.06
2022-10-05T23:43:43.592Z,98266.78
2022-10-05T23:46:10.691Z,98259.63
2022-10-05T23:48:40.483Z,98259.47
2022-10-05T23:51:10.015Z,98256.41
2022-10-05T23:53:37.438Z,98240.25
2022-10-05T23:56:04.801Z,98258.97
2022-10-05T23:58:32.004Z,98260.59
